sensor_id;sensor_type;location;lat;lon;timestamp;pressure;altitude;pressure_sealevel;temperature;humidity
9059;BME280;4564;42.034;25.834;2023-05-25T00:02:12;100097.94;;;14.19;100.00
9059;BME280;4564;42.034;25.834;2023-05-25T00:04:40;100093.94;;;14.22;100.00
9059;BME280;4564;42.034;25.834;2023-05-25T00:07:06;100094.78;;;14.22;100.00
9059;BME280;4564;42.034;25.834;2023-05-25T00:09:33;100089.72;;;14.26;100.00
9059;BME280;4564;42.034;25.834;2023-05-25T00:12:00;100103.63;;;14.11;100.00
9059;BME280;4564;42.034;25.834;2023-05-25T00:14:27;100093.78;;;14.04;100.00
9059;BME280;4564;42.034;25.834;2023-05-25T00:16:55;100089.78;;;14.06;100.00
9059;BME280;4564;42.034;25.834;2023-05-25T00:19:23;100094.41;;;14.06;100.00
9059;BME280;4564;42.034;25.834;2023-05-25T00:21:50;100083.47;;;14.12;100.00
9059;BME280;4564;42.034;25.834;2023-05-25T00:24:16;100094.59;;;14.11;100.00
9059;BME280;4564;42.034;25.834;2023-05-25T00:26:43;100086.22;;;14.06;100.00
9059;BME280;4564;42.034;25.834;2023-05-25T00:29:09;100089.41;;;13.96;100.00
9059;BME280;4564;42.034;25.834;2023-05-25T00:31:36;100081.44;;;13.95;100.00
9059;BME280;4564;42.034;25.834;2023-05-25T00:34:03;100076.59;;;13.97;100.00
9059;BME280;4564;42.034;25.834;2023-05-25T00:36:31;100072.84;;;13.84;100.00
9059;BME280;4564;42.034;25.834;2023-05-25T00:38:58;100078.97;;;13.73;100.00
9059;BME280;4564;42.034;25.834;2023-05-25T00:41:24;100077.28;;;13.72;100.00
9059;BME280;4564;42.034;25.834;2023-05-25T00:43:53;100077.72;;;13.69;100.00
9059;BME280;4564;42.034;25.834;2023-05-25T00:46:19;100075.25;;;13.55;100.00
9059;BME280;4564;42.034;25.834;2023-05-25T00:48:47;100071.44;;;13.62;100.00
9059;BME280;4564;42.034;25.834;2023-05-25T00:51:14;100072.69;;;13.66;100.00
9059;BME280;4564;42.034;25.834;2023-05-25T00:53:42;100082.13;;;13.70;100.00
9059;BME280;4564;42.034;25.834;2023-05-25T00:56:10;100074.75;;;13.77;100.00
9059;BME280;4564;42.034;25.834;2023-05-25T00:58:39;100076.47;;;13.65;100.00
9059;BME280;4564;42.034;25.834;2023-05-25T01:01:06;100080.47;;;13.50;100.00
9059;BME280;4564;42.034;25.834;2023-05-25T01:03:36;100080.69;;;13.55;100.00
9059;BME280;4564;42.034;25.834;2023-05-25T01:06:06;100082.97;;;13.58;100.00
9059;BME280;4564;42.034;25.834;2023-05-25T01:08:35;100083.63;;;13.60;100.00
9059;BME280;4564;42.034;25.834;2023-05-25T01:11:03;100092.59;;;13.67;100.00
9059;BME280;4564;42.034;25.834;2023-05-25T01:13:31;100094.09;;;13.63;100.00
9059;BME280;4564;42.034;25.834;2023-05-25T01:16:02;100087.78;;;13.62;100.00
9059;BME280;4564;42.034;25.834;2023-05-25T01:18:29;100087.78;;;13.62;100.00
9059;BME280;4564;42.034;25.834;2023-05-25T01:21:01;100088.63;;;13.56;100.00
9059;BME280;4564;42.034;25.834;2023-05-25T01:23:37;100092.44;;;13.49;100.00
9059;BME280;4564;42.034;25.834;2023-05-25T01:26:05;100084.91;;;13.44;100.00
9059;BME280;4564;42.034;25.834;2023-05-25T01:28:36;100079.22;;;13.45;100.00
9059;BME280;4564;42.034;25.834;2023-05-25T01:31:05;100069.78;;;13.48;100.00
9059;BME280;4564;42.034;25.834;2023-05-25T01:33:32;100077.78;;;13.43;100.00
9059;BME280;4564;42.034;25.834;2023-05-25T01:36:01;100076.72;;;13.44;100.00
9059;BME280;4564;42.034;25.834;2023-05-25T01:38:28;100070.19;;;13.45;100.00
9059;BME280;4564;42.034;25.834;2023-05-25T01:40:55;100068.31;;;13.39;100.00
9059;BME280;4564;42.034;25.834;2023-05-25T01:43:21;100070.44;;;13.43;100.00
9059;BME280;4564;42.034;25.834;2023-05-25T01:45:48;100070.84;;;13.47;100.00
9059;BME280;4564;42.034;25.834;2023-05-25T01:48:20;100064.34;;;13.48;100.00
9059;BME280;4564;42.034;25.834;2023-05-25T01:50:52;100071.88;;;13.46;100.00
9059;BME280;4564;42.034;25.834;2023-05-25T01:53:21;100078.16;;;13.40;100.00
9059;BME280;4564;42.034;25.834;2023-05-25T01:55:50;100076.06;;;13.29;100.00
9059;BME280;4564;42.034;25.834;2023-05-25T01:58:18;100079.88;;;13.28;100.00
9059;BME280;4564;42.034;25.834;2023-05-25T02:00:45;100070.22;;;13.25;100.00
9059;BME280;4564;42.034;25.834;2023-05-25T02:03:13;100082.16;;;13.24;100.00
9059;BME280;4564;42.034;25.834;2023-05-25T02:05:40;100085.72;;;13.25;100.00
9059;BME280;4564;42.034;25.834;2023-05-25T02:08:06;100084.91;;;13.31;100.00
9059;BME280;4564;42.034;25.834;2023-05-25T02:10:34;100084.47;;;13.34;100.00
9059;BME280;4564;42.034;25.834;2023-05-25T02:13:01;100084.06;;;13.37;100.00
9059;BME280;4564;42.034;25.834;2023-05-25T02:15:29;100085.75;;;13.38;100.00
9059;BME280;4564;42.034;25.834;2023-05-25T02:17:56;100086.59;;;13.38;100.00
9059;BME280;4564;42.034;25.834;2023-05-25T02:20:24;100098.28;;;13.39;100.00
9059;BME280;4564;42.034;25.834;2023-05-25T02:22:50;100092.88;;;13.32;100.00
9059;BME280;4564;42.034;25.834;2023-05-25T02:25:19;100099.56;;;13.30;100.00
9059;BME280;4564;42.034;25.834;2023-05-25T02:27:47;100101.69;;;13.28;100.00
9059;BME280;4564;42.034;25.834;2023-05-25T02:30:13;100100.19;;;13.25;100.00
9059;BME280;4564;42.034;25.834;2023-05-25T02:32:40;100098.75;;;13.16;100.00
9059;BME280;4564;42.034;25.834;2023-05-25T02:35:07;100101.88;;;13.20;100.00
9059;BME280;4564;42.034;25.834;2023-05-25T02:37:34;100102.94;;;13.25;100.00
9059;BME280;4564;42.034;25.834;2023-05-25T02:40:00;100107.72;;;13.23;100.00
9059;BME280;4564;42.034;25.834;2023-05-25T02:42:28;100104.81;;;13.25;100.00
9059;BME280;4564;42.034;25.834;2023-05-25T02:44:55;100100.00;;;13.27;100.00
9059;BME280;4564;42.034;25.834;2023-05-25T02:47:22;100102.72;;;13.27;100.00
9059;BME280;4564;42.034;25.834;2023-05-25T02:49:49;100107.97;;;13.22;100.00
9059;BME280;4564;42.034;25.834;2023-05-25T02:52:16;100101.88;;;13.20;100.00
9059;BME280;4564;42.034;25.834;2023-05-25T02:54:42;100111.09;;;13.25;100.00
9059;BME280;4564;42.034;25.834;2023-05-25T02:57:09;100105.63;;;13.19;100.00
9059;BME280;4564;42.034;25.834;2023-05-25T02:59:36;100117.78;;;13.23;100.00
9059;BME280;4564;42.034;25.834;2023-05-25T03:02:04;100120.09;;;13.19;100.00
9059;BME280;4564;42.034;25.834;2023-05-25T03:04:31;100116.09;;;13.09;100.00
9059;BME280;4564;42.034;25.834;2023-05-25T03:06:58;100128.03;;;13.08;100.00
9059;BME280;4564;42.034;25.834;2023-05-25T03:09:25;100124.69;;;13.06;100.00
9059;BME280;4564;42.034;25.834;2023-05-25T03:11:51;100124.91;;;13.11;100.00
9059;BME280;4564;42.034;25.834;2023-05-25T03:14:18;100130.59;;;13.16;100.00
9059;BME280;4564;42.034;25.834;2023-05-25T03:16:45;100121.38;;;13.17;100.00
9059;BME280;4564;42.034;25.834;2023-05-25T03:19:13;100132.69;;;13.27;100.00
9059;BME280;4564;42.034;25.834;2023-05-25T03:21:39;100131.03;;;13.32;100.00
9059;BME280;4564;42.034;25.834;2023-05-25T03:24:06;100133.53;;;13.47;100.00
9059;BME280;4564;42.034;25.834;2023-05-25T03:26:32;100130.38;;;13.57;100.00
9059;BME280;4564;42.034;25.834;2023-05-25T03:28:59;100143.59;;;13.53;100.00
9059;BME280;4564;42.034;25.834;2023-05-25T03:31:26;100141.94;;;13.65;100.00
9059;BME280;4564;42.034;25.834;2023-05-25T03:33:52;100141.91;;;13.78;100.00
9059;BME280;4564;42.034;25.834;2023-05-25T03:36:20;100142.75;;;13.66;100.00
9059;BME280;4564;42.034;25.834;2023-05-25T03:38:47;100148.44;;;13.64;100.00
9059;BME280;4564;42.034;25.834;2023-05-25T03:41:13;100141.91;;;13.72;100.00
9059;BME280;4564;42.034;25.834;2023-05-25T03:43:40;100141.50;;;13.75;100.00
9059;BME280;4564;42.034;25.834;2023-05-25T03:46:06;100145.22;;;14.00;100.00
9059;BME280;4564;42.034;25.834;2023-05-25T03:48:34;100147.09;;;14.13;100.00
9059;BME280;4564;42.034;25.834;2023-05-25T03:51:00;100148.50;;;14.28;100.00
9059;BME280;4564;42.034;25.834;2023-05-25T03:53:28;100140.06;;;14.43;100.00
9059;BME280;4564;42.034;25.834;2023-05-25T03:55:55;100137.50;;;14.61;100.00
9059;BME280;4564;42.034;25.834;2023-05-25T03:58:22;100141.22;;;14.74;100.00
9059;BME280;4564;42.034;25.834;2023-05-25T04:00:48;100138.69;;;14.72;100.00
9059;BME280;4564;42.034;25.834;2023-05-25T04:03:15;100141.75;;;14.89;100.00
9059;BME280;4564;42.034;25.834;2023-05-25T04:05:42;100132.59;;;15.08;100.00
9059;BME280;4564;42.034;25.834;2023-05-25T04:08:10;100136.91;;;15.22;100.00
9059;BME280;4564;42.034;25.834;2023-05-25T04:10:39;100146.06;;;15.34;100.00
9059;BME280;4564;42.034;25.834;2023-05-25T04:13:06;100148.72;;;15.47;100.00
9059;BME280;4564;42.034;25.834;2023-05-25T04:15:33;100149.78;;;15.71;100.00
9059;BME280;4564;42.034;25.834;2023-05-25T04:17:59;100145.94;;;15.79;100.00
9059;BME280;4564;42.034;25.834;2023-05-25T04:20:27;100145.81;;;15.92;99.98
9059;BME280;4564;42.034;25.834;2023-05-25T04:22:53;100141.81;;;16.13;99.59
9059;BME280;4564;42.034;25.834;2023-05-25T04:25:20;100147.97;;;16.45;97.91
9059;BME280;4564;42.034;25.834;2023-05-25T04:27:48;100153.91;;;16.78;96.16
9059;BME280;4564;42.034;25.834;2023-05-25T04:30:15;100163.59;;;17.22;93.15
9059;BME280;4564;42.034;25.834;2023-05-25T04:32:42;100147.13;;;17.22;93.87
9059;BME280;4564;42.034;25.834;2023-05-25T04:35:09;100153.13;;;17.31;93.25
9059;BME280;4564;42.034;25.834;2023-05-25T04:37:38;100154.59;;;17.45;92.96
9059;BME280;4564;42.034;25.834;2023-05-25T04:40:05;100159.00;;;17.46;92.40
9059;BME280;4564;42.034;25.834;2023-05-25T04:42:33;100159.75;;;17.53;93.04
9059;BME280;4564;42.034;25.834;2023-05-25T04:45:03;100152.66;;;17.75;93.02
9059;BME280;4564;42.034;25.834;2023-05-25T04:47:30;100158.84;;;17.82;91.85
9059;BME280;4564;42.034;25.834;2023-05-25T04:49:58;100152.41;;;17.88;93.57
9059;BME280;4564;42.034;25.834;2023-05-25T04:52:25;100160.66;;;18.12;92.33
9059;BME280;4564;42.034;25.834;2023-05-25T04:54:52;100170.53;;;18.36;91.62
9059;BME280;4564;42.034;25.834;2023-05-25T04:57:18;100174.25;;;18.93;89.88
9059;BME280;4564;42.034;25.834;2023-05-25T04:59:45;100179.41;;;19.18;87.96
9059;BME280;4564;42.034;25.834;2023-05-25T05:02:13;100162.47;;;19.54;86.41
9059;BME280;4564;42.034;25.834;2023-05-25T05:04:41;100167.56;;;19.46;86.25
9059;BME280;4564;42.034;25.834;2023-05-25T05:07:07;100161.00;;;19.35;86.43
9059;BME280;4564;42.034;25.834;2023-05-25T05:09:34;100164.56;;;19.47;86.46
9059;BME280;4564;42.034;25.834;2023-05-25T05:12:00;100163.84;;;19.68;86.40
9059;BME280;4564;42.034;25.834;2023-05-25T05:14:28;100175.44;;;20.42;85.05
9059;BME280;4564;42.034;25.834;2023-05-25T05:16:54;100176.25;;;22.26;79.48
9059;BME280;4564;42.034;25.834;2023-05-25T05:19:22;100178.47;;;24.34;71.17
9059;BME280;4564;42.034;25.834;2023-05-25T05:21:49;100176.81;;;26.24;63.28
9059;BME280;4564;42.034;25.834;2023-05-25T05:24:16;100189.94;;;27.38;59.54
9059;BME280;4564;42.034;25.834;2023-05-25T05:26:42;100187.41;;;28.71;55.59
9059;BME280;4564;42.034;25.834;2023-05-25T05:29:09;100184.94;;;28.97;51.75
9059;BME280;4564;42.034;25.834;2023-05-25T05:31:36;100192.34;;;29.65;50.37
9059;BME280;4564;42.034;25.834;2023-05-25T05:34:02;100183.44;;;29.98;49.22
9059;BME280;4564;42.034;25.834;2023-05-25T05:36:30;100181.63;;;30.47;46.17
9059;BME280;4564;42.034;25.834;2023-05-25T05:38:58;100185.94;;;30.93;44.88
9059;BME280;4564;42.034;25.834;2023-05-25T05:41:25;100183.00;;;30.05;45.90
9059;BME280;4564;42.034;25.834;2023-05-25T05:43:52;100193.16;;;29.79;46.92
9059;BME280;4564;42.034;25.834;2023-05-25T05:46:18;100191.34;;;29.60;46.81
9059;BME280;4564;42.034;25.834;2023-05-25T05:48:45;100199.25;;;30.25;46.63
9059;BME280;4564;42.034;25.834;2023-05-25T05:51:11;100192.41;;;30.09;45.09
9059;BME280;4564;42.034;25.834;2023-05-25T05:53:40;100201.13;;;29.49;46.42
9059;BME280;4564;42.034;25.834;2023-05-25T05:56:11;100202.50;;;29.38;48.14
9059;BME280;4564;42.034;25.834;2023-05-25T05:58:41;100200.91;;;30.26;45.50
9059;BME280;4564;42.034;25.834;2023-05-25T06:01:08;100209.06;;;30.67;44.47
9059;BME280;4564;42.034;25.834;2023-05-25T06:03:34;100211.63;;;31.34;41.95
9059;BME280;4564;42.034;25.834;2023-05-25T06:06:02;100212.00;;;31.84;41.56
9059;BME280;4564;42.034;25.834;2023-05-25T06:08:29;100207.53;;;31.83;40.20
9059;BME280;4564;42.034;25.834;2023-05-25T06:10:57;100213.97;;;32.01;40.80
9059;BME280;4564;42.034;25.834;2023-05-25T06:13:23;100204.03;;;31.35;40.97
9059;BME280;4564;42.034;25.834;2023-05-25T06:15:50;100213.16;;;31.66;40.70
9059;BME280;4564;42.034;25.834;2023-05-25T06:18:16;100210.66;;;32.07;40.35
9059;BME280;4564;42.034;25.834;2023-05-25T06:20:43;100215.25;;;33.52;36.60
9059;BME280;4564;42.034;25.834;2023-05-25T06:23:10;100213.72;;;33.34;37.91
9059;BME280;4564;42.034;25.834;2023-05-25T06:25:38;100215.31;;;33.14;37.45
9059;BME280;4564;42.034;25.834;2023-05-25T06:28:06;100221.56;;;34.11;34.86
9059;BME280;4564;42.034;25.834;2023-05-25T06:30:32;100222.03;;;34.91;33.39
9059;BME280;4564;42.034;25.834;2023-05-25T06:32:59;100222.69;;;35.61;32.91
9059;BME280;4564;42.034;25.834;2023-05-25T06:35:25;100226.22;;;35.70;32.87
9059;BME280;4564;42.034;25.834;2023-05-25T06:37:52;100230.75;;;35.22;33.09
9059;BME280;4564;42.034;25.834;2023-05-25T06:40:19;100227.06;;;34.73;34.11
9059;BME280;4564;42.034;25.834;2023-05-25T06:42:45;100229.44;;;35.20;33.54
9059;BME280;4564;42.034;25.834;2023-05-25T06:45:13;100221.16;;;34.21;34.46
9059;BME280;4564;42.034;25.834;2023-05-25T06:47:40;100218.72;;;34.77;34.06
9059;BME280;4564;42.034;25.834;2023-05-25T06:50:07;100215.06;;;32.98;36.27
9059;BME280;4564;42.034;25.834;2023-05-25T06:52:34;100216.91;;;31.44;40.19
9059;BME280;4564;42.034;25.834;2023-05-25T06:55:01;100210.16;;;30.05;44.02
9059;BME280;4564;42.034;25.834;2023-05-25T06:57:28;100219.16;;;29.79;44.24
9059;BME280;4564;42.034;25.834;2023-05-25T06:59:54;100214.81;;;29.10;47.01
9059;BME280;4564;42.034;25.834;2023-05-25T07:02:22;100203.22;;;28.48;48.67
9059;BME280;4564;42.034;25.834;2023-05-25T07:04:49;100210.25;;;28.13;49.31
9059;BME280;4564;42.034;25.834;2023-05-25T07:07:16;100211.81;;;27.68;51.66
9059;BME280;4564;42.034;25.834;2023-05-25T07:09:42;100209.47;;;27.75;51.64
9059;BME280;4564;42.034;25.834;2023-05-25T07:12:09;100204.34;;;27.45;52.88
9059;BME280;4564;42.034;25.834;2023-05-25T07:14:36;100203.56;;;27.95;51.63
9059;BME280;4564;42.034;25.834;2023-05-25T07:17:03;100203.91;;;28.26;50.86
9059;BME280;4564;42.034;25.834;2023-05-25T07:19:31;100201.16;;;28.67;49.29
9059;BME280;4564;42.034;25.834;2023-05-25T07:21:57;100203.97;;;29.08;47.66
9059;BME280;4564;42.034;25.834;2023-05-25T07:24:24;100198.81;;;29.02;48.05
9059;BME280;4564;42.034;25.834;2023-05-25T07:26:50;100206.09;;;29.52;47.94
9059;BME280;4564;42.034;25.834;2023-05-25T07:29:17;100205.44;;;29.91;45.70
9059;BME280;4564;42.034;25.834;2023-05-25T07:31:44;100170.81;;;30.63;45.17
9059;BME280;4564;42.034;25.834;2023-05-25T07:34:10;100206.66;;;32.89;38.46
9059;BME280;4564;42.034;25.834;2023-05-25T07:36:38;100203.91;;;32.72;39.09
9059;BME280;4564;42.034;25.834;2023-05-25T07:39:05;100207.78;;;33.77;37.14
9059;BME280;4564;42.034;25.834;2023-05-25T07:41:32;100218.72;;;35.01;34.10
9059;BME280;4564;42.034;25.834;2023-05-25T07:43:59;100217.06;;;36.29;32.46
9059;BME280;4564;42.034;25.834;2023-05-25T07:46:26;100216.34;;;36.04;32.75
9059;BME280;4564;42.034;25.834;2023-05-25T07:48:52;100216.97;;;34.97;33.16
9059;BME280;4564;42.034;25.834;2023-05-25T07:51:20;100219.31;;;35.31;32.41
9059;BME280;4564;42.034;25.834;2023-05-25T07:53:49;100209.38;;;34.52;34.70
9059;BME280;4564;42.034;25.834;2023-05-25T07:56:16;100203.81;;;33.27;35.50
9059;BME280;4564;42.034;25.834;2023-05-25T07:58:43;100210.78;;;33.30;36.72
9059;BME280;4564;42.034;25.834;2023-05-25T08:01:09;100212.34;;;34.02;35.03
9059;BME280;4564;42.034;25.834;2023-05-25T08:03:36;100217.22;;;34.46;35.20
9059;BME280;4564;42.034;25.834;2023-05-25T08:06:02;100220.25;;;34.74;33.66
9059;BME280;4564;42.034;25.834;2023-05-25T08:08:29;100213.31;;;33.64;33.76
9059;BME280;4564;42.034;25.834;2023-05-25T08:10:57;100215.97;;;33.11;34.93
9059;BME280;4564;42.034;25.834;2023-05-25T08:13:24;100218.59;;;32.23;36.03
9059;BME280;4564;42.034;25.834;2023-05-25T08:15:51;100214.94;;;31.45;38.98
9059;BME280;4564;42.034;25.834;2023-05-25T08:18:17;100210.47;;;30.87;39.50
9059;BME280;4564;42.034;25.834;2023-05-25T08:20:44;100202.47;;;30.72;42.26
9059;BME280;4564;42.034;25.834;2023-05-25T08:23:11;100198.44;;;30.95;40.93
9059;BME280;4564;42.034;25.834;2023-05-25T08:25:38;100197.91;;;30.76;40.29
9059;BME280;4564;42.034;25.834;2023-05-25T08:28:06;100199.66;;;30.63;41.90
9059;BME280;4564;42.034;25.834;2023-05-25T08:30:33;100190.31;;;30.45;42.95
9059;BME280;4564;42.034;25.834;2023-05-25T08:32:59;100195.66;;;30.56;41.51
9059;BME280;4564;42.034;25.834;2023-05-25T08:35:26;100199.50;;;30.37;41.41
9059;BME280;4564;42.034;25.834;2023-05-25T08:37:53;100187.38;;;29.97;42.47
9059;BME280;4564;42.034;25.834;2023-05-25T08:40:21;100186.84;;;29.37;43.32
9059;BME280;4564;42.034;25.834;2023-05-25T08:42:48;100185.31;;;29.17;44.90
9059;BME280;4564;42.034;25.834;2023-05-25T08:45:16;100186.56;;;29.25;44.71
9059;BME280;4564;42.034;25.834;2023-05-25T08:47:42;100182.75;;;28.94;44.19
9059;BME280;4564;42.034;25.834;2023-05-25T08:50:10;100182.25;;;28.92;45.82
9059;BME280;4564;42.034;25.834;2023-05-25T08:52:38;100180.97;;;28.43;45.63
9059;BME280;4564;42.034;25.834;2023-05-25T08:55:05;100174.72;;;28.19;46.96
9059;BME280;4564;42.034;25.834;2023-05-25T08:57:33;100165.00;;;28.30;46.65
9059;BME280;4564;42.034;25.834;2023-05-25T09:00:02;100159.66;;;28.47;46.23
9059;BME280;4564;42.034;25.834;2023-05-25T09:02:33;100167.44;;;28.77;42.53
9059;BME280;4564;42.034;25.834;2023-05-25T09:05:01;100163.94;;;28.86;41.76
9059;BME280;4564;42.034;25.834;2023-05-25T09:07:28;100166.91;;;28.48;45.42
9059;BME280;4564;42.034;25.834;2023-05-25T09:09:54;100155.06;;;28.24;45.30
9059;BME280;4564;42.034;25.834;2023-05-25T09:12:22;100156.47;;;28.08;46.53
9059;BME280;4564;42.034;25.834;2023-05-25T09:14:49;100154.72;;;28.12;48.33
9059;BME280;4564;42.034;25.834;2023-05-25T09:17:16;100152.47;;;28.14;48.12
9059;BME280;4564;42.034;25.834;2023-05-25T09:19:45;100158.50;;;28.02;48.36
9059;BME280;4564;42.034;25.834;2023-05-25T09:22:12;100144.09;;;28.14;48.96
9059;BME280;4564;42.034;25.834;2023-05-25T09:24:38;100142.78;;;27.92;47.48
9059;BME280;4564;42.034;25.834;2023-05-25T09:27:09;100136.78;;;28.18;47.84
9059;BME280;4564;42.034;25.834;2023-05-25T09:29:36;100136.25;;;28.29;48.93
9059;BME280;4564;42.034;25.834;2023-05-25T09:32:03;100132.06;;;28.59;46.38
9059;BME280;4564;42.034;25.834;2023-05-25T09:34:30;100130.09;;;28.73;47.92
9059;BME280;4564;42.034;25.834;2023-05-25T09:36:59;100136.72;;;28.91;43.66
9059;BME280;4564;42.034;25.834;2023-05-25T09:39:27;100130.00;;;28.78;43.36
9059;BME280;4564;42.034;25.834;2023-05-25T09:41:54;100138.13;;;28.61;43.62
9059;BME280;4564;42.034;25.834;2023-05-25T09:44:20;100139.91;;;28.44;44.19
9059;BME280;4564;42.034;25.834;2023-05-25T09:46:47;100130.47;;;28.12;43.97
9059;BME280;4564;42.034;25.834;2023-05-25T09:49:13;100118.81;;;27.91;44.03
9059;BME280;4564;42.034;25.834;2023-05-25T09:51:40;100117.47;;;27.89;44.38
9059;BME280;4564;42.034;25.834;2023-05-25T09:54:09;100132.50;;;28.07;44.32
9059;BME280;4564;42.034;25.834;2023-05-25T09:56:36;100111.31;;;28.06;44.85
9059;BME280;4564;42.034;25.834;2023-05-25T09:59:02;100120.34;;;28.30;44.64
9059;BME280;4564;42.034;25.834;2023-05-25T10:01:30;100120.97;;;28.27;43.81
9059;BME280;4564;42.034;25.834;2023-05-25T10:03:57;100124.44;;;28.05;41.98
9059;BME280;4564;42.034;25.834;2023-05-25T10:06:25;100121.94;;;28.04;44.21
9059;BME280;4564;42.034;25.834;2023-05-25T10:08:52;100132.75;;;28.24;42.71
9059;BME280;4564;42.034;25.834;2023-05-25T10:11:22;100122.09;;;28.12;43.01
9059;BME280;4564;42.034;25.834;2023-05-25T10:13:50;100125.94;;;28.57;42.27
9059;BME280;4564;42.034;25.834;2023-05-25T10:16:22;100114.75;;;28.57;42.38
9059;BME280;4564;42.034;25.834;2023-05-25T10:18:50;100111.47;;;28.83;42.36
9059;BME280;4564;42.034;25.834;2023-05-25T10:21:20;100125.72;;;29.08;40.89
9059;BME280;4564;42.034;25.834;2023-05-25T10:23:49;100112.03;;;29.07;41.28
9059;BME280;4564;42.034;25.834;2023-05-25T10:26:17;100105.94;;;29.05;42.11
9059;BME280;4564;42.034;25.834;2023-05-25T10:28:48;100101.03;;;29.10;42.16
9059;BME280;4564;42.034;25.834;2023-05-25T10:31:15;100101.31;;;29.23;42.12
9059;BME280;4564;42.034;25.834;2023-05-25T10:33:43;100094.50;;;28.79;43.19
9059;BME280;4564;42.034;25.834;2023-05-25T10:36:10;100096.22;;;28.89;41.74
9059;BME280;4564;42.034;25.834;2023-05-25T10:38:38;100082.59;;;29.23;41.92
9059;BME280;4564;42.034;25.834;2023-05-25T10:41:05;100090.50;;;29.66;40.40
9059;BME280;4564;42.034;25.834;2023-05-25T10:43:34;100087.44;;;29.53;37.38
9059;BME280;4564;42.034;25.834;2023-05-25T10:46:02;100083.50;;;29.54;36.70
9059;BME280;4564;42.034;25.834;2023-05-25T10:48:35;100078.47;;;29.65;37.12
9059;BME280;4564;42.034;25.834;2023-05-25T10:51:02;100080.53;;;29.73;36.79
9059;BME280;4564;42.034;25.834;2023-05-25T10:53:29;100078.88;;;29.72;36.68
9059;BME280;4564;42.034;25.834;2023-05-25T10:56:00;100086.06;;;29.42;36.86
9059;BME280;4564;42.034;25.834;2023-05-25T10:58:27;100079.28;;;28.71;38.67
9059;BME280;4564;42.034;25.834;2023-05-25T11:00:57;100084.56;;;28.59;40.77
9059;BME280;4564;42.034;25.834;2023-05-25T11:06:12;100086.03;;;28.16;39.80
9059;BME280;4564;42.034;25.834;2023-05-25T11:08:49;100089.06;;;28.01;40.75
9059;BME280;4564;42.034;25.834;2023-05-25T11:11:16;100086.91;;;28.11;40.70
9059;BME280;4564;42.034;25.834;2023-05-25T11:13:43;100079.75;;;27.91;40.31
9059;BME280;4564;42.034;25.834;2023-05-25T11:16:17;100071.91;;;27.93;41.75
9059;BME280;4564;42.034;25.834;2023-05-25T11:18:44;100077.44;;;28.26;41.39
9059;BME280;4564;42.034;25.834;2023-05-25T11:21:16;100072.19;;;28.38;40.07
9059;BME280;4564;42.034;25.834;2023-05-25T11:23:53;100072.97;;;28.52;40.22
9059;BME280;4564;42.034;25.834;2023-05-25T11:26:20;100072.34;;;28.69;39.25
9059;BME280;4564;42.034;25.834;2023-05-25T11:28:47;100063.69;;;28.43;39.89
9059;BME280;4564;42.034;25.834;2023-05-25T11:31:18;100068.41;;;28.56;39.83
9059;BME280;4564;42.034;25.834;2023-05-25T11:33:44;100071.09;;;28.61;40.18
9059;BME280;4564;42.034;25.834;2023-05-25T11:36:12;100074.22;;;28.46;40.27
9059;BME280;4564;42.034;25.834;2023-05-25T11:38:41;100074.22;;;28.60;40.95
9059;BME280;4564;42.034;25.834;2023-05-25T11:41:14;100065.44;;;28.80;41.64
9059;BME280;4564;42.034;25.834;2023-05-25T11:43:41;100069.00;;;28.94;40.87
9059;BME280;4564;42.034;25.834;2023-05-25T11:46:08;100071.13;;;28.75;39.77
9059;BME280;4564;42.034;25.834;2023-05-25T11:48:34;100063.13;;;28.68;40.13
9059;BME280;4564;42.034;25.834;2023-05-25T11:51:04;100050.03;;;28.55;39.61
9059;BME280;4564;42.034;25.834;2023-05-25T11:53:31;100052.91;;;28.77;39.33
9059;BME280;4564;42.034;25.834;2023-05-25T11:55:59;100052.50;;;29.06;38.17
9059;BME280;4564;42.034;25.834;2023-05-25T11:58:31;100053.91;;;28.95;37.92
9059;BME280;4564;42.034;25.834;2023-05-25T12:01:10;100038.19;;;28.72;37.97
9059;BME280;4564;42.034;25.834;2023-05-25T12:03:37;100045.03;;;28.79;39.06
9059;BME280;4564;42.034;25.834;2023-05-25T12:06:04;100033.13;;;29.10;38.43
9059;BME280;4564;42.034;25.834;2023-05-25T12:08:31;100027.00;;;29.44;38.59
9059;BME280;4564;42.034;25.834;2023-05-25T12:10:59;100029.47;;;29.68;37.64
9059;BME280;4564;42.034;25.834;2023-05-25T12:13:26;100032.03;;;29.86;36.65
9059;BME280;4564;42.034;25.834;2023-05-25T12:15:53;100025.16;;;29.92;37.38
9059;BME280;4564;42.034;25.834;2023-05-25T12:18:21;100028.00;;;29.70;37.51
9059;BME280;4564;42.034;25.834;2023-05-25T12:20:48;100024.13;;;29.13;39.77
9059;BME280;4564;42.034;25.834;2023-05-25T12:23:15;100041.75;;;28.36;44.30
9059;BME280;4564;42.034;25.834;2023-05-25T12:25:42;100042.66;;;26.27;54.91
9059;BME280;4564;42.034;25.834;2023-05-25T12:28:10;100043.66;;;24.33;61.70
9059;BME280;4564;42.034;25.834;2023-05-25T12:30:37;100043.25;;;23.15;71.48
9059;BME280;4564;42.034;25.834;2023-05-25T12:33:03;100043.66;;;22.51;81.05
9059;BME280;4564;42.034;25.834;2023-05-25T12:35:42;100054.06;;;22.24;82.85
9059;BME280;4564;42.034;25.834;2023-05-25T12:38:09;100049.28;;;22.14;83.08
9059;BME280;4564;42.034;25.834;2023-05-25T12:40:36;100042.94;;;22.13;86.06
9059;BME280;4564;42.034;25.834;2023-05-25T12:43:03;100043.53;;;22.21;83.68
9059;BME280;4564;42.034;25.834;2023-05-25T12:45:31;100041.09;;;22.29;79.73
9059;BME280;4564;42.034;25.834;2023-05-25T12:47:58;100035.84;;;22.33;70.51
9059;BME280;4564;42.034;25.834;2023-05-25T12:50:25;100033.91;;;22.33;70.96
9059;BME280;4564;42.034;25.834;2023-05-25T12:52:51;100041.41;;;22.43;72.02
9059;BME280;4564;42.034;25.834;2023-05-25T12:55:25;100046.16;;;22.63;72.15
9059;BME280;4564;42.034;25.834;2023-05-25T12:57:53;100049.88;;;22.83;73.57
9059;BME280;4564;42.034;25.834;2023-05-25T13:00:20;100054.00;;;22.96;72.61
9059;BME280;4564;42.034;25.834;2023-05-25T13:02:49;100058.19;;;23.14;71.57